Time;durP1;ratioP1;P1;durP2;ratioP2;P2;SDS_P1;SDS_P2;PMS_P1;PMS_P2;Temp;Humidity;BMP_temperature;BMP_pressure;BME280_temperature;BME280_humidity;BME280_pressure;Samples;Min_cycle;Max_cycle;Signal;HPM_P1;HPM_P2
2023/07/04 00:00:29;;;;;;;8.15;3.10;;;;;;;;;;10436711;28;20380;-74
2023/07/04 00:05:33;;;;;;;7.70;2.50;;;;;;;;;;10434532;28;20051;-74
2023/07/04 00:10:37;;;;;;;9.93;3.47;;;;;;;;;;10431913;28;20059;-73
2023/07/04 00:15:44;;;;;;;9.73;4.05;;;;;;;;;;10432840;28;20071;-73
2023/07/04 00:20:53;;;;;;;7.45;2.95;;;;;;;;;;10427470;28;20041;-74
2023/07/04 00:25:56;;;;;;;8.38;3.00;;;;;;;;;;10422799;28;20049;-74
2023/07/04 00:30:59;;;;;;;9.05;3.55;;;;;;;;;;10427720;28;20029;-74
2023/07/04 00:36:05;;;;;;;10.55;3.70;;;;;;;;;;10423539;28;20053;-75
2023/07/04 00:41:14;;;;;;;6.57;2.97;;;;;;;;;;10430679;28;20044;-75
2023/07/04 00:46:26;;;;;;;7.22;3.10;;;;;;;;;;10436881;28;20052;-73
2023/07/04 00:51:31;;;;;;;11.15;3.97;;;;;;;;;;10431708;28;21235;-73
2023/07/04 00:56:34;;;;;;;10.38;3.90;;;;;;;;;;10439073;28;20052;-73
2023/07/04 01:01:37;;;;;;;8.35;3.40;;;;;;;;;;10436732;28;20091;-73
2023/07/04 01:06:46;;;;;;;11.27;3.97;;;;;;;;;;10437188;28;20690;-75
2023/07/04 01:11:49;;;;;;;8.43;3.33;;;;;;;;;;10428098;28;20041;-76
2023/07/04 01:16:52;;;;;;;9.15;3.33;;;;;;;;;;10433649;28;20147;-74
2023/07/04 01:22:00;;;;;;;8.63;3.60;;;;;;;;;;10425722;28;20640;-73
2023/07/04 01:27:05;;;;;;;8.52;3.60;;;;;;;;;;10429861;28;20045;-73
2023/07/04 01:32:09;;;;;;;6.72;3.22;;;;;;;;;;10438209;28;20060;-73
2023/07/04 01:37:13;;;;;;;11.30;3.22;;;;;;;;;;10431496;28;20048;-73
2023/07/04 01:42:18;;;;;;;6.72;3.15;;;;;;;;;;10440457;28;20047;-73
2023/07/04 01:47:21;;;;;;;7.82;2.97;;;;;;;;;;10443327;28;20494;-73
2023/07/04 01:52:24;;;;;;;8.60;3.30;;;;;;;;;;10436716;28;20047;-74
2023/07/04 01:57:28;;;;;;;7.90;3.47;;;;;;;;;;10433197;28;20131;-73
2023/07/04 02:02:31;;;;;;;9.55;3.22;;;;;;;;;;10429216;28;20127;-74
2023/07/04 02:07:34;;;;;;;8.98;3.58;;;;;;;;;;10425907;28;20048;-73
2023/07/04 02:12:38;;;;;;;6.67;3.10;;;;;;;;;;10426383;28;20210;-73
2023/07/04 02:17:41;;;;;;;8.38;3.13;;;;;;;;;;10428321;28;20543;-73
2023/07/04 02:22:44;;;;;;;6.93;2.53;;;;;;;;;;10427512;28;21130;-72
2023/07/04 02:27:47;;;;;;;;;;;;;;;;;;10433200;28;20052;-73
2023/07/04 02:32:51;;;;;;;7.03;2.83;;;;;;;;;;10436244;28;19927;-75
2023/07/04 02:37:53;;;;;;;6.70;2.80;;;;;;;;;;10437807;28;20064;-75
2023/07/04 02:42:58;;;;;;;6.88;3.00;;;;;;;;;;10431235;28;20065;-74
2023/07/04 02:48:02;;;;;;;8.32;2.95;;;;;;;;;;10437897;28;20044;-74
2023/07/04 02:53:05;;;;;;;6.97;2.83;;;;;;;;;;10429642;28;20529;-74
2023/07/04 02:58:08;;;;;;;8.93;4.17;;;;;;;;;;10426296;28;20058;-74
2023/07/04 03:03:13;;;;;;;8.68;3.83;;;;;;;;;;10425900;28;20132;-75
2023/07/04 03:08:16;;;;;;;6.57;2.90;;;;;;;;;;10427397;28;20045;-75
2023/07/04 03:13:19;;;;;;;5.77;2.93;;;;;;;;;;10414877;28;20039;-74
2023/07/04 03:18:23;;;;;;;7.00;3.47;;;;;;;;;;10429513;28;20388;-74
2023/07/04 03:23:26;;;;;;;6.80;2.90;;;;;;;;;;10430638;28;20036;-74
2023/07/04 03:28:28;;;;;;;8.93;2.70;;;;;;;;;;10429201;28;20059;-74
2023/07/04 03:33:32;;;;;;;7.05;2.42;;;;;;;;;;10434202;28;20100;-75
2023/07/04 03:38:35;;;;;;;7.28;2.42;;;;;;;;;;10435467;28;20040;-74
2023/07/04 03:43:37;;;;;;;4.68;2.05;;;;;;;;;;10432885;28;20030;-74
2023/07/04 03:48:42;;;;;;;6.57;2.65;;;;;;;;;;10423276;28;20044;-75
2023/07/04 03:53:47;;;;;;;7.68;2.80;;;;;;;;;;10424993;28;20053;-76
2023/07/04 03:58:50;;;;;;;8.35;2.88;;;;;;;;;;10409694;28;20123;-77
2023/07/04 04:03:54;;;;;;;9.10;2.97;;;;;;;;;;10426222;28;20200;-74
2023/07/04 04:08:57;;;;;;;6.13;2.95;;;;;;;;;;10427580;28;20071;-75
2023/07/04 04:13:59;;;;;;;9.18;2.95;;;;;;;;;;10424219;28;20036;-75
2023/07/04 04:19:04;;;;;;;7.68;2.83;;;;;;;;;;10431746;28;20041;-76
2023/07/04 04:24:06;;;;;;;3.83;1.60;;;;;;;;;;10415267;28;20081;-75
2023/07/04 04:29:10;;;;;;;5.60;2.53;;;;;;;;;;10437692;28;20037;-75
2023/07/04 04:34:16;;;;;;;5.35;2.40;;;;;;;;;;10430255;28;20044;-76
2023/07/04 04:39:19;;;;;;;8.02;3.05;;;;;;;;;;10430387;28;20041;-75
2023/07/04 04:44:22;;;;;;;6.57;2.20;;;;;;;;;;10432953;28;20053;-76
2023/07/04 04:49:27;;;;;;;3.63;1.85;;;;;;;;;;10433229;28;20068;-74
2023/07/04 04:54:30;;;;;;;4.80;2.22;;;;;;;;;;10432428;28;20064;-73
2023/07/04 04:59:32;;;;;;;3.93;1.40;;;;;;;;;;10434517;28;20102;-74
2023/07/04 05:04:36;;;;;;;3.40;2.22;;;;;;;;;;10439179;28;20037;-75
2023/07/04 05:09:39;;;;;;;3.45;1.50;;;;;;;;;;10440643;28;20052;-73
2023/07/04 05:14:42;;;;;;;4.07;1.83;;;;;;;;;;10432053;28;20072;-73
2023/07/04 05:19:47;;;;;;;2.90;1.83;;;;;;;;;;10436289;28;20036;-73
2023/07/04 05:24:50;;;;;;;2.25;1.30;;;;;;;;;;10433233;28;20052;-73
2023/07/04 05:29:58;;;;;;;3.67;1.90;;;;;;;;;;10431718;28;20559;-74
2023/07/04 05:35:04;;;;;;;1.45;0.93;;;;;;;;;;10428726;28;20049;-74
2023/07/04 05:40:08;;;;;;;2.60;1.30;;;;;;;;;;10433603;28;20055;-73
2023/07/04 05:45:11;;;;;;;2.80;1.45;;;;;;;;;;10436365;28;20041;-73
2023/07/04 05:50:15;;;;;;;4.37;2.13;;;;;;;;;;10446931;28;20136;-74
2023/07/04 05:55:17;;;;;;;2.50;1.40;;;;;;;;;;10446062;28;20477;-74
2023/07/04 06:00:21;;;;;;;4.63;1.77;;;;;;;;;;10443063;28;20065;-73
2023/07/04 06:05:25;;;;;;;2.42;1.17;;;;;;;;;;10436421;28;20072;-74
2023/07/04 06:10:27;;;;;;;2.58;1.40;;;;;;;;;;10434711;28;20044;-74
2023/07/04 06:15:30;;;;;;;1.83;1.23;;;;;;;;;;10433867;28;20051;-73
2023/07/04 06:20:35;;;;;;;1.80;1.27;;;;;;;;;;10431526;28;20033;-72
2023/07/04 06:25:37;;;;;;;2.78;1.60;;;;;;;;;;10432874;28;20502;-73
2023/07/04 06:30:40;;;;;;;3.58;1.60;;;;;;;;;;10428955;28;20035;-72
2023/07/04 06:35:44;;;;;;;2.67;1.50;;;;;;;;;;10430944;28;20037;-73
2023/07/04 06:40:54;;;;;;;4.13;1.63;;;;;;;;;;10421299;28;20056;-73
2023/07/04 06:45:57;;;;;;;3.55;1.70;;;;;;;;;;10429889;28;20116;-74
2023/07/04 06:51:03;;;;;;;3.20;1.63;;;;;;;;;;10429197;28;20084;-75
2023/07/04 06:56:06;;;;;;;1.00;0.90;;;;;;;;;;10428212;28;20054;-73
2023/07/04 07:01:09;;;;;;;;;;;;;;;;;;10427479;28;20032;-74
2023/07/04 07:06:13;;;;;;;3.60;1.20;;;;;;;;;;10425598;28;20436;-74
2023/07/04 07:11:16;;;;;;;5.35;1.77;;;;;;;;;;10421906;28;20040;-75
2023/07/04 07:16:20;;;;;;;2.83;1.45;;;;;;;;;;10422214;28;20124;-73
2023/07/04 07:21:26;;;;;;;2.22;0.98;;;;;;;;;;10420799;28;20037;-74
2023/07/04 07:26:30;;;;;;;1.23;0.75;;;;;;;;;;10424612;28;20075;-74
2023/07/04 07:31:33;;;;;;;2.40;1.17;;;;;;;;;;10424324;28;20032;-74
2023/07/04 07:36:39;;;;;;;2.83;1.27;;;;;;;;;;10428427;28;20132;-74
2023/07/04 07:41:43;;;;;;;3.10;1.70;;;;;;;;;;10433882;28;20060;-73
2023/07/04 07:46:46;;;;;;;3.83;1.27;;;;;;;;;;10428689;28;20115;-74
2023/07/04 07:51:51;;;;;;;7.47;2.95;;;;;;;;;;10421647;28;20041;-74
2023/07/04 07:56:54;;;;;;;2.67;1.50;;;;;;;;;;10432361;28;20126;-74
2023/07/04 08:01:57;;;;;;;;;;;;;;;;;;10428304;28;20039;-74
2023/07/04 08:07:02;;;;;;;2.45;1.30;;;;;;;;;;10425455;28;19929;-74
2023/07/04 08:12:04;;;;;;;1.77;1.40;;;;;;;;;;10423870;28;20052;-75
2023/07/04 08:17:07;;;;;;;3.38;1.52;;;;;;;;;;10425210;28;20056;-74
2023/07/04 08:22:11;;;;;;;1.42;1.10;;;;;;;;;;10425174;28;20041;-75
2023/07/04 08:27:14;;;;;;;3.08;1.60;;;;;;;;;;10431712;28;20476;-74
2023/07/04 08:32:18;;;;;;;3.45;1.60;;;;;;;;;;10435016;28;20539;-76
2023/07/04 08:37:22;;;;;;;4.90;2.05;;;;;;;;;;10430951;28;20078;-76
2023/07/04 08:42:26;;;;;;;3.75;1.92;;;;;;;;;;10431895;28;20032;-75
2023/07/04 08:47:30;;;;;;;1.77;1.30;;;;;;;;;;10412712;28;20057;-75
2023/07/04 08:52:36;;;;;;;3.15;2.10;;;;;;;;;;10428208;28;20128;-74
2023/07/04 08:57:41;;;;;;;2.17;1.90;;;;;;;;;;10407706;28;20036;-73
2023/07/04 09:02:50;;;;;;;2.58;1.65;;;;;;;;;;10424607;28;20040;-74
2023/07/04 09:07:59;;;;;;;2.95;1.90;;;;;;;;;;10423491;28;20261;-75
2023/07/04 09:13:02;;;;;;;2.63;2.22;;;;;;;;;;10431375;28;20506;-74
2023/07/04 09:18:14;;;;;;;3.67;2.22;;;;;;;;;;10430671;28;20046;-74
2023/07/04 09:23:26;;;;;;;3.97;2.10;;;;;;;;;;10433352;28;20044;-74
2023/07/04 09:28:29;;;;;;;3.05;1.90;;;;;;;;;;10429615;28;20501;-75
2023/07/04 09:33:35;;;;;;;2.67;2.22;;;;;;;;;;10434127;28;20045;-73
2023/07/04 09:38:52;;;;;;;3.50;2.30;;;;;;;;;;10435251;28;20319;-76
2023/07/04 09:43:56;;;;;;;3.85;2.90;;;;;;;;;;10431204;28;20127;-76
2023/07/04 09:49:13;;;;;;;3.15;1.90;;;;;;;;;;10427590;28;20414;-76
2023/07/04 09:54:18;;;;;;;4.15;2.25;;;;;;;;;;10424998;28;20127;-75
2023/07/04 09:59:23;;;;;;;6.28;2.60;;;;;;;;;;10425531;28;20494;-74
2023/07/04 10:04:31;;;;;;;3.53;2.50;;;;;;;;;;10422079;28;20068;-75
2023/07/04 10:09:35;;;;;;;4.63;2.90;;;;;;;;;;10423472;28;20631;-74
2023/07/04 10:14:45;;;;;;;4.00;2.50;;;;;;;;;;10430391;28;20068;-75
2023/07/04 10:19:49;;;;;;;5.93;2.95;;;;;;;;;;10430716;28;21337;-74
2023/07/04 10:24:53;;;;;;;4.72;2.63;;;;;;;;;;10432085;28;20110;-74
2023/07/04 10:29:59;;;;;;;3.80;1.85;;;;;;;;;;10430266;28;20047;-75
2023/07/04 10:35:02;;;;;;;5.93;3.10;;;;;;;;;;10421667;28;20496;-75
2023/07/04 10:40:09;;;;;;;4.03;2.80;;;;;;;;;;10431061;28;20037;-74
2023/07/04 10:45:15;;;;;;;3.92;2.53;;;;;;;;;;10429995;28;20045;-75
2023/07/04 10:50:21;;;;;;;4.40;3.00;;;;;;;;;;10427686;28;20384;-75
2023/07/04 10:55:29;;;;;;;4.82;2.33;;;;;;;;;;10433573;28;20037;-74
2023/07/04 11:00:36;;;;;;;5.95;2.85;;;;;;;;;;10422912;28;20044;-74
2023/07/04 11:05:40;;;;;;;6.10;3.03;;;;;;;;;;10424133;28;20482;-75
2023/07/04 11:10:46;;;;;;;3.72;2.75;;;;;;;;;;10426756;28;20052;-74
2023/07/04 11:15:52;;;;;;;6.55;2.58;;;;;;;;;;10423756;28;20076;-75
2023/07/04 11:21:08;;;;;;;6.35;3.10;;;;;;;;;;10423589;28;20400;-74
2023/07/04 11:26:13;;;;;;;5.40;2.67;;;;;;;;;;10420522;28;20053;-76
2023/07/04 11:31:23;;;;;;;5.20;3.30;;;;;;;;;;10423170;28;20124;-75
2023/07/04 11:36:27;;;;;;;4.63;2.92;;;;;;;;;;10419098;28;20079;-76
2023/07/04 11:41:33;;;;;;;6.22;3.10;;;;;;;;;;10425633;28;20235;-74
2023/07/04 11:46:36;;;;;;;6.63;3.00;;;;;;;;;;10421278;28;20041;-74
2023/07/04 11:51:39;;;;;;;5.13;2.72;;;;;;;;;;10419957;28;20057;-75
2023/07/04 11:56:43;;;;;;;6.75;3.28;;;;;;;;;;10424725;28;20125;-75
2023/07/04 12:02:06;;;;;;;4.70;2.78;;;;;;;;;;10419821;28;20044;-75
2023/07/04 12:07:09;;;;;;;5.25;3.28;;;;;;;;;;10420378;28;20567;-75
2023/07/04 12:12:20;;;;;;;5.20;2.72;;;;;;;;;;10421736;28;20159;-75
2023/07/04 12:17:24;;;;;;;6.25;2.80;;;;;;;;;;10401633;28;20049;-74
2023/07/04 12:22:27;;;;;;;5.57;2.70;;;;;;;;;;10420320;28;20116;-76
2023/07/04 12:27:31;;;;;;;6.18;2.63;;;;;;;;;;10420112;28;20049;-76
2023/07/04 12:32:36;;;;;;;4.68;2.63;;;;;;;;;;10424410;28;20045;-77
2023/07/04 12:37:40;;;;;;;4.30;2.70;;;;;;;;;;10431602;28;20050;-76
2023/07/04 12:42:44;;;;;;;4.30;2.38;;;;;;;;;;10427147;28;20743;-75
2023/07/04 12:47:49;;;;;;;4.78;2.63;;;;;;;;;;10432893;28;20049;-74
2023/07/04 12:52:55;;;;;;;4.53;2.50;;;;;;;;;;10430380;28;20406;-76
2023/07/04 12:58:00;;;;;;;4.63;2.33;;;;;;;;;;10429002;28;20146;-75
2023/07/04 13:03:05;;;;;;;3.42;2.35;;;;;;;;;;10412053;28;20040;-75
2023/07/04 13:08:13;;;;;;;3.92;2.00;;;;;;;;;;10428428;28;20131;-75
2023/07/04 13:13:28;;;;;;;4.93;2.35;;;;;;;;;;10430570;28;20091;-75
2023/07/04 13:18:37;;;;;;;4.65;1.88;;;;;;;;;;10426732;28;20049;-76
2023/07/04 13:23:40;;;;;;;4.95;1.73;;;;;;;;;;10429169;28;20073;-76
2023/07/04 13:28:48;;;;;;;5.43;1.90;;;;;;;;;;10425810;28;20132;-76
2023/07/04 13:33:55;;;;;;;4.05;2.40;;;;;;;;;;10430629;28;20183;-75
2023/07/04 13:38:58;;;;;;;4.10;2.05;;;;;;;;;;10432250;28;20544;-75
2023/07/04 13:44:06;;;;;;;7.05;2.35;;;;;;;;;;10426923;28;20072;-73
2023/07/04 13:49:11;;;;;;;5.03;2.58;;;;;;;;;;10427526;28;20957;-76
2023/07/04 13:54:14;;;;;;;3.95;2.42;;;;;;;;;;10425494;28;20128;-77
2023/07/04 13:59:18;;;;;;;3.47;1.80;;;;;;;;;;10422870;28;20501;-75
2023/07/04 14:04:21;;;;;;;4.65;2.10;;;;;;;;;;10420357;28;20509;-75
2023/07/04 14:09:27;;;;;;;4.10;2.10;;;;;;;;;;10424431;28;20063;-75
2023/07/04 14:14:31;;;;;;;8.32;2.25;;;;;;;;;;10424699;28;20532;-75
2023/07/04 14:19:37;;;;;;;4.97;2.30;;;;;;;;;;10427917;28;20499;-74
2023/07/04 14:24:43;;;;;;;3.40;1.98;;;;;;;;;;10419376;28;20524;-74
2023/07/04 14:29:47;;;;;;;4.43;2.70;;;;;;;;;;10431564;28;20041;-76
2023/07/04 14:34:50;;;;;;;5.60;2.78;;;;;;;;;;10431183;28;20045;-76
2023/07/04 14:39:53;;;;;;;6.53;2.58;;;;;;;;;;10428218;28;20099;-75
2023/07/04 14:44:57;;;;;;;6.70;2.60;;;;;;;;;;10419424;28;20323;-76
2023/07/04 14:50:01;;;;;;;6.38;2.50;;;;;;;;;;10422022;28;20053;-76
2023/07/04 14:55:08;;;;;;;4.90;2.50;;;;;;;;;;10420869;28;20037;-76
2023/07/04 15:00:13;;;;;;;3.58;2.08;;;;;;;;;;10422489;28;20505;-75
2023/07/04 15:05:16;;;;;;;4.40;2.42;;;;;;;;;;10423700;28;20411;-75
2023/07/04 15:10:19;;;;;;;3.47;2.00;;;;;;;;;;10419017;28;20208;-75
2023/07/04 15:15:24;;;;;;;5.47;2.72;;;;;;;;;;10420796;28;20131;-76
2023/07/04 15:20:28;;;;;;;4.13;2.40;;;;;;;;;;10422873;28;20128;-76
2023/07/04 15:25:32;;;;;;;5.05;2.40;;;;;;;;;;10426923;28;20081;-77
2023/07/04 15:30:36;;;;;;;5.28;2.40;;;;;;;;;;10426883;28;20047;-75
2023/07/04 15:35:39;;;;;;;3.92;2.10;;;;;;;;;;10424822;28;20139;-76
2023/07/04 15:40:48;;;;;;;5.35;2.70;;;;;;;;;;10424704;28;20041;-75
2023/07/04 15:45:53;;;;;;;5.28;2.38;;;;;;;;;;10419876;28;20530;-75
2023/07/04 15:50:57;;;;;;;4.20;1.90;;;;;;;;;;10420065;28;20127;-76
2023/07/04 15:56:01;;;;;;;4.22;2.00;;;;;;;;;;10424000;28;20053;-75
2023/07/04 16:01:06;;;;;;;2.60;1.80;;;;;;;;;;10404716;28;20045;-75
2023/07/04 16:06:10;;;;;;;5.57;1.85;;;;;;;;;;10422601;28;20116;-76
2023/07/04 16:11:14;;;;;;;7.60;3.00;;;;;;;;;;10426154;28;20049;-76
2023/07/04 16:16:19;;;;;;;5.50;2.88;;;;;;;;;;10432216;28;20030;-74
2023/07/04 16:21:22;;;;;;;3.00;1.92;;;;;;;;;;10431882;28;20060;-75
2023/07/04 16:26:25;;;;;;;4.07;2.03;;;;;;;;;;10436234;28;20099;-75
2023/07/04 16:31:29;;;;;;;6.25;2.25;;;;;;;;;;10450173;28;20052;-74
2023/07/04 16:36:33;;;;;;;5.10;2.40;;;;;;;;;;10431608;28;20101;-74
2023/07/04 16:41:36;;;;;;;5.28;2.33;;;;;;;;;;10434834;28;20077;-75
2023/07/04 16:46:40;;;;;;;5.15;2.17;;;;;;;;;;10436474;28;20037;-74
2023/07/04 16:51:43;;;;;;;5.95;2.28;;;;;;;;;;10434673;28;20057;-74
2023/07/04 16:56:48;;;;;;;7.38;2.30;;;;;;;;;;10431613;28;20099;-75
2023/07/04 17:01:53;;;;;;;4.60;1.88;;;;;;;;;;10432154;28;20556;-75
2023/07/04 17:06:56;;;;;;;5.40;2.15;;;;;;;;;;10431109;28;20029;-75
2023/07/04 17:11:59;;;;;;;5.53;2.78;;;;;;;;;;10431933;28;20191;-74
2023/07/04 17:17:03;;;;;;;3.60;1.80;;;;;;;;;;10432873;28;20622;-75
2023/07/04 17:22:06;;;;;;;5.97;2.33;;;;;;;;;;10431606;28;20124;-76
2023/07/04 17:27:10;;;;;;;1.75;1.20;;;;;;;;;;10426695;28;20846;-75
2023/07/04 17:32:14;;;;;;;4.25;2.22;;;;;;;;;;10431457;28;20475;-76
2023/07/04 17:37:16;;;;;;;4.22;2.22;;;;;;;;;;10429689;28;20099;-75
2023/07/04 17:42:20;;;;;;;3.25;1.85;;;;;;;;;;10430505;28;20722;-75
2023/07/04 17:47:24;;;;;;;3.80;2.22;;;;;;;;;;10432238;28;20044;-75
2023/07/04 17:52:27;;;;;;;3.33;1.77;;;;;;;;;;10434107;28;20048;-74
2023/07/04 17:57:30;;;;;;;;;;;;;;;;;;10411891;28;20044;-74
2023/07/04 18:02:34;;;;;;;4.75;2.20;;;;;;;;;;10429032;28;19935;-75
2023/07/04 18:07:38;;;;;;;6.95;1.98;;;;;;;;;;10426515;28;20048;-74
2023/07/04 18:12:41;;;;;;;5.28;2.20;;;;;;;;;;10426037;28;20354;-75
2023/07/04 18:17:45;;;;;;;14.38;4.05;;;;;;;;;;10425001;28;20046;-76
2023/07/04 18:22:48;;;;;;;7.03;2.35;;;;;;;;;;10425963;28;20494;-76
2023/07/04 18:27:52;;;;;;;8.75;2.72;;;;;;;;;;10424187;28;20046;-77
2023/07/04 18:32:56;;;;;;;4.55;2.10;;;;;;;;;;10428594;28;20049;-75
2023/07/04 18:38:00;;;;;;;3.97;1.88;;;;;;;;;;10427920;28;20033;-75
2023/07/04 18:43:03;;;;;;;3.85;1.15;;;;;;;;;;10432071;28;20107;-76
2023/07/04 18:48:07;;;;;;;4.97;1.75;;;;;;;;;;10430416;28;20132;-75
2023/07/04 18:53:10;;;;;;;4.43;2.00;;;;;;;;;;10429773;28;20133;-75
2023/07/04 18:58:12;;;;;;;7.18;1.80;;;;;;;;;;10429908;28;20052;-74
2023/07/04 19:03:16;;;;;;;4.20;2.45;;;;;;;;;;10431281;28;20487;-76
2023/07/04 19:08:19;;;;;;;4.18;1.80;;;;;;;;;;10426583;28;20496;-75
2023/07/04 19:13:22;;;;;;;1.63;1.00;;;;;;;;;;10426980;28;20049;-75
2023/07/04 19:18:27;;;;;;;4.35;2.45;;;;;;;;;;10426508;28;20072;-73
2023/07/04 19:23:30;;;;;;;7.13;3.03;;;;;;;;;;10423281;28;20446;-74
2023/07/04 19:28:33;;;;;;;2.67;1.45;;;;;;;;;;10428839;28;20065;-74
2023/07/04 19:33:37;;;;;;;3.13;1.70;;;;;;;;;;10428400;28;20152;-75
2023/07/04 19:38:40;;;;;;;3.28;1.38;;;;;;;;;;10431042;28;20120;-75
2023/07/04 19:43:44;;;;;;;1.35;0.70;;;;;;;;;;10428163;28;20091;-75
2023/07/04 19:48:48;;;;;;;2.42;1.40;;;;;;;;;;10430520;28;20107;-76
2023/07/04 19:53:52;;;;;;;3.65;1.52;;;;;;;;;;10434303;28;20095;-75
2023/07/04 19:58:54;;;;;;;3.45;1.00;;;;;;;;;;10429822;28;20065;-76
2023/07/04 20:03:59;;;;;;;1.15;0.75;;;;;;;;;;10413760;28;20049;-75
2023/07/04 20:09:02;;;;;;;1.52;0.90;;;;;;;;;;10431296;28;20124;-75
2023/07/04 20:14:05;;;;;;;1.60;1.02;;;;;;;;;;10421847;28;20800;-75
2023/07/04 20:19:15;;;;;;;2.95;0.93;;;;;;;;;;10437548;28;20088;-75
2023/07/04 20:24:18;;;;;;;1.92;1.00;;;;;;;;;;10431059;28;20056;-74
2023/07/04 20:29:21;;;;;;;1.52;0.95;;;;;;;;;;10432898;28;20052;-75
2023/07/04 20:34:25;;;;;;;2.47;1.20;;;;;;;;;;10439900;28;20077;-75
2023/07/04 20:39:28;;;;;;;1.17;0.65;;;;;;;;;;10429419;28;20048;-74
2023/07/04 20:44:31;;;;;;;1.65;0.90;;;;;;;;;;10416977;28;20071;-75
2023/07/04 20:49:34;;;;;;;;;;;;;;;;;;10435746;28;20160;-74
2023/07/04 20:54:39;;;;;;;4.07;1.10;;;;;;;;;;10429891;28;20039;-75
2023/07/04 20:59:41;;;;;;;1.40;0.82;;;;;;;;;;10426976;28;20037;-74
2023/07/04 21:04:50;;;;;;;1.60;0.90;;;;;;;;;;10432077;28;20128;-74
2023/07/04 21:09:54;;;;;;;1.17;0.80;;;;;;;;;;10435576;28;20124;-73
2023/07/04 21:14:58;;;;;;;2.15;1.00;;;;;;;;;;10433181;28;20052;-75
2023/07/04 21:20:01;;;;;;;1.77;1.00;;;;;;;;;;10430540;28;20498;-74
2023/07/04 21:25:07;;;;;;;2.90;1.05;;;;;;;;;;10433616;28;20055;-75
2023/07/04 21:30:10;;;;;;;4.13;1.58;;;;;;;;;;10432147;28;20040;-75
2023/07/04 21:35:16;;;;;;;5.30;1.98;;;;;;;;;;10430290;28;20511;-75
2023/07/04 21:40:21;;;;;;;3.22;1.90;;;;;;;;;;10433917;28;20072;-74
2023/07/04 21:45:24;;;;;;;2.00;1.23;;;;;;;;;;10429770;28;20032;-74
2023/07/04 21:50:27;;;;;;;3.90;1.80;;;;;;;;;;10427273;28;20044;-75
2023/07/04 21:55:31;;;;;;;3.17;1.52;;;;;;;;;;10427159;28;20049;-74
2023/07/04 22:00:34;;;;;;;2.58;1.08;;;;;;;;;;10426212;28;20045;-73
2023/07/04 22:05:37;;;;;;;1.60;1.17;;;;;;;;;;10428285;28;20512;-74
2023/07/04 22:10:41;;;;;;;2.28;1.00;;;;;;;;;;10427051;28;20049;-74
2023/07/04 22:15:46;;;;;;;1.58;1.02;;;;;;;;;;10432381;28;20636;-74
2023/07/04 22:20:48;;;;;;;2.20;1.08;;;;;;;;;;10413754;28;20041;-72
2023/07/04 22:25:55;;;;;;;2.83;1.25;;;;;;;;;;10431742;28;20183;-73
2023/07/04 22:30:58;;;;;;;1.80;0.85;;;;;;;;;;10432085;28;20494;-74
2023/07/04 22:36:01;;;;;;;1.67;1.00;;;;;;;;;;10427076;28;20040;-75
2023/07/04 22:41:06;;;;;;;2.60;1.08;;;;;;;;;;10425304;28;20098;-74
2023/07/04 22:46:08;;;;;;;1.70;1.10;;;;;;;;;;10425957;28;20029;-74
2023/07/04 22:51:11;;;;;;;0.63;0.43;;;;;;;;;;10434598;28;20098;-73
2023/07/04 22:56:16;;;;;;;1.90;1.27;;;;;;;;;;10434292;28;20045;-73
2023/07/04 23:01:20;;;;;;;1.73;0.93;;;;;;;;;;10428230;28;20033;-73
2023/07/04 23:06:23;;;;;;;2.03;1.02;;;;;;;;;;10429883;28;20060;-73
2023/07/04 23:11:27;;;;;;;1.80;1.00;;;;;;;;;;10408380;28;20037;-75
2023/07/04 23:16:30;;;;;;;2.10;0.90;;;;;;;;;;10427758;28;20040;-74
2023/07/04 23:21:32;;;;;;;2.33;0.98;;;;;;;;;;10421753;28;20041;-74
2023/07/04 23:26:41;;;;;;;2.85;1.40;;;;;;;;;;10422686;28;20073;-74
2023/07/04 23:31:44;;;;;;;4.10;1.45;;;;;;;;;;10423056;28;20052;-74
2023/07/04 23:36:46;;;;;;;3.63;1.00;;;;;;;;;;10424156;28;20155;-76
2023/07/04 23:41:50;;;;;;;4.00;1.08;;;;;;;;;;10425269;28;20057;-75
2023/07/04 23:46:53;;;;;;;1.58;0.90;;;;;;;;;;10430486;28;20041;-76
2023/07/04 23:51:56;;;;;;;1.17;0.85;;;;;;;;;;10425142;28;20055;-75
2023/07/04 23:57:00;;;;;;;0.50;0.50;;;;;;;;;;10429163;28;20036;-74
